KASE

Aspen-Pitkin Co / Sardy Field Airport

Aspen, Colorado, USA
METAR KASE 181453Z 00000KT 10SM SCT075 03/M02 A3035 RMK AO2 SLP225 T00281022 53002
Observed Flight Rules
Oct-18 @ 14:53 UTC (an hour ago) Visual Flight Rules
Visibility Clouds
10 miles
  • Scattered at 7,500' AGL
Temperatures Readings
Current 3°C / 37°F
Dewpoint -2°C / 28°F
Humidity 70%
Altimeter 30.35" Hg
Pressure 1022.5 hPa
Elevation 2354
METAR KASE 181453Z 00000KT 10SM SCT075 03/M02 A3035 RMK AO2 SLP225 T00281022 53002
Observed Flight Rules
Oct-18 @ 14:53 UTC
(an hour ago)
VFR
Clouds
  • Scattered at 7,500' AGL
Temperature Dewpoint
3°C / 37°F -2°C / 28°F
Humidity Altimeter Pressure
70% 30.35" Hg 1022.5 hPa